Terminal Aerodrome Forecast
Issued by NWS

Home | Current Version | Previous Version | Text Only | Print | Product List | Glossary On
Versions: 1 2 3 4 5 6 7 8 9 10 11 12 13 14 15 16 17 18 19 20 21 22 23 24 25 26 27 28 29 30 31 32 33
620
FTUS42 KCAE 240548 CCA
TAFCUB
TAF COR
KCUB 240548Z 2406/2506 VRB08KT 6SM -SHRA OVC006 WS015/15020KT
      TEMPO 2407/2409 2SM SHRA OVC004
     FM241400 VRB10KT 5SM SHRA VCTS OVC012CB
      TEMPO 2416/2420 +TSRA=

USA.gov is the U.S. government's official web portal to all federal, state and local government web resources and services.